Time;durP1;ratioP1;P1;durP2;ratioP2;P2;SDS_P1;SDS_P2;PMS_P1;PMS_P2;Temp;Humidity;BMP_temperature;BMP_pressure;BME280_temperature;BME280_humidity;BME280_pressure;Samples;Min_cycle;Max_cycle;Signal;HPM_P1;HPM_P2
2022/12/23 00:01:02;;;;;;;42.50;17.98;;;8.60;99.90;;;;;;5038222;28;20127;-86
2022/12/23 00:03:29;;;;;;;38.38;18.42;;;8.60;99.90;;;;;;5055743;28;20124;-87
2022/12/23 00:05:55;;;;;;;40.58;19.13;;;8.60;99.90;;;;;;5038146;28;20092;-87
2022/12/23 00:08:22;;;;;;;42.13;18.75;;;8.70;99.90;;;;;;5021437;28;20047;-86
2022/12/23 00:10:49;;;;;;;41.05;19.10;;;8.60;99.90;;;;;;5054141;28;20119;-87
2022/12/23 00:16:09;;;;;;;44.42;19.60;;;8.60;99.90;;;;;;5073110;28;20043;-87
2022/12/23 00:18:36;;;;;;;45.72;20.70;;;8.60;99.90;;;;;;5055033;28;20471;-86
2022/12/23 00:21:04;;;;;;;49.42;20.73;;;8.60;99.90;;;;;;5054872;28;20043;-87
2022/12/23 00:23:35;;;;;;;55.22;22.25;;;8.60;99.90;;;;;;5070891;28;20056;-87
2022/12/23 00:26:02;;;;;;;61.80;23.08;;;8.60;99.90;;;;;;5054915;28;20446;-86
2022/12/23 00:28:29;;;;;;;75.63;23.42;;;7.90;99.90;;;;;;5055229;28;20071;-87
2022/12/23 00:30:59;;;;;;;78.18;24.83;;;8.60;99.90;;;;;;5057123;28;20043;-86
2022/12/23 00:33:34;;;;;;;68.07;22.63;;;8.60;99.90;;;;;;5056698;28;20043;-87
2022/12/23 00:36:00;;;;;;;63.87;22.47;;;8.60;99.90;;;;;;5055302;28;20077;-87
2022/12/23 00:43:57;;;;;;;66.10;23.63;;;8.60;99.90;;;;;;5073994;28;20044;-86
2022/12/23 00:46:26;;;;;;;67.85;22.40;;;8.70;99.90;;;;;;5076576;28;20036;-87
2022/12/23 00:51:37;;;;;;;74.03;23.67;;;8.70;99.90;;;;;;5049171;28;20431;-86
2022/12/23 00:54:03;;;;;;;73.38;22.75;;;8.70;99.90;;;;;;5042657;28;20102;-87
2022/12/23 00:56:29;;;;;;;71.82;23.55;;;8.70;99.90;;;;;;5041983;28;20040;-87
2022/12/23 00:58:55;;;;;;;68.88;23.65;;;9.10;99.90;;;;;;5056009;28;20067;-86
2022/12/23 01:06:50;;;;;;;62.47;22.25;;;8.70;99.90;;;;;;5060566;28;20126;-87
2022/12/23 01:09:15;;;;;;;60.42;21.67;;;8.70;99.90;;;;;;5042237;28;20101;-87
2022/12/23 01:11:42;;;;;;;63.92;21.58;;;8.70;99.90;;;;;;5041714;28;20067;-87
2022/12/23 01:14:11;;;;;;;64.68;22.10;;;8.70;99.90;;;;;;5057193;28;20044;-86
2022/12/23 01:16:38;;;;;;;58.05;22.52;;;8.70;99.90;;;;;;5058581;28;20519;-86
2022/12/23 01:19:05;;;;;;;48.65;20.08;;;8.70;99.90;;;;;;5058775;28;20121;-87
2022/12/23 01:21:31;;;;;;;51.47;20.45;;;8.70;99.90;;;;;;5058674;28;20477;-86
2022/12/23 01:23:57;;;;;;;49.53;20.15;;;8.70;99.90;;;;;;5057490;28;20139;-87
2022/12/23 01:26:23;;;;;;;57.22;20.35;;;8.70;99.90;;;;;;5042676;28;20044;-87
2022/12/23 01:28:54;;;;;;;51.20;20.38;;;8.70;99.90;;;;;;5024690;28;20434;-87
2022/12/23 01:31:20;;;;;;;48.80;19.90;;;8.80;99.90;;;;;;5057636;28;20055;-87
2022/12/23 01:33:46;;;;;;;49.50;20.00;;;8.70;99.90;;;;;;5057601;28;20040;-86
2022/12/23 01:36:12;;;;;;;51.80;20.35;;;8.80;99.90;;;;;;5041567;28;20500;-86
2022/12/23 01:38:37;;;;;;;47.67;20.40;;;8.70;99.90;;;;;;5057443;28;20051;-87
2022/12/23 01:41:03;;;;;;;48.45;19.65;;;8.80;99.90;;;;;;5057723;28;20036;-86
2022/12/23 01:43:47;;;;;;;45.15;19.25;;;8.80;99.90;;;;;;5057934;28;20044;-87
2022/12/23 01:46:13;;;;;;;47.55;19.80;;;8.70;99.90;;;;;;5058097;28;20122;-86
2022/12/23 01:48:44;;;;;;;47.85;20.77;;;8.70;99.90;;;;;;5041314;28;20535;-86
2022/12/23 01:51:17;;;;;;;51.15;20.17;;;8.70;99.90;;;;;;5063568;28;20384;-87
2022/12/23 01:53:48;;;;;;;50.80;19.52;;;8.90;99.90;;;;;;5058086;28;20036;-86
2022/12/23 01:56:34;;;;;;;49.97;19.60;;;8.70;99.90;;;;;;5056928;28;20372;-87
2022/12/23 02:04:43;;;;;;;46.50;19.27;;;8.70;99.90;;;;;;5046214;28;20112;-87
2022/12/23 02:09:55;;;;;;;42.20;18.08;;;8.70;99.90;;;;;;5059336;28;20050;-87
2022/12/23 02:12:23;;;;;;;42.58;17.67;;;8.70;99.90;;;;;;5039826;28;20557;-87
2022/12/23 02:18:12;;;;;;;32.22;14.13;;;8.60;99.90;;;;;;5039936;28;20830;-87
2022/12/23 02:20:56;;;;;;;29.58;14.48;;;8.60;99.90;;;;;;5056542;28;20089;-87
2022/12/23 02:23:49;;;;;;;31.67;14.23;;;8.60;99.90;;;;;;5056204;28;20052;-87
2022/12/23 02:26:43;;;;;;;31.88;13.57;;;8.30;99.90;;;;;;5064607;28;20521;-86
2022/12/23 02:29:11;;;;;;;27.92;12.65;;;8.60;99.90;;;;;;5056338;28;20130;-86
2022/12/23 02:32:32;;;;;;;22.35;10.30;;;8.50;99.90;;;;;;5073186;28;20048;-87
2022/12/23 02:35:25;;;;;;;18.58;9.85;;;8.50;99.90;;;;;;5025553;28;20049;-87
2022/12/23 02:38:18;;;;;;;19.38;9.73;;;8.50;99.90;;;;;;5073202;28;20040;-87
2022/12/23 02:41:05;;;;;;;21.48;10.80;;;8.50;99.90;;;;;;5072200;28;20047;-87
2022/12/23 02:43:48;;;;;;;20.85;10.38;;;8.50;99.90;;;;;;5057051;28;20471;-87
2022/12/23 02:46:29;;;;;;;22.40;10.02;;;8.50;99.90;;;;;;5072408;28;20040;-87
2022/12/23 02:49:06;;;;;;;20.13;9.98;;;8.50;99.90;;;;;;5055978;28;20392;-87
2022/12/23 02:51:37;;;;;;;23.58;10.50;;;8.50;99.90;;;;;;5073412;28;20043;-86
2022/12/23 02:54:07;;;;;;;20.38;9.82;;;8.50;99.90;;;;;;5056195;28;20090;-87
2022/12/23 02:56:35;;;;;;;19.23;10.27;;;8.50;99.90;;;;;;5055217;28;20044;-87
2022/12/23 02:59:06;;;;;;;24.83;10.77;;;8.50;99.90;;;;;;5055863;28;20067;-87
2022/12/23 03:01:33;;;;;;;19.48;10.27;;;8.50;99.90;;;;;;5056517;28;20052;-86
2022/12/23 03:03:59;;;;;;;19.25;10.68;;;8.50;99.90;;;;;;5058462;28;20119;-86
2022/12/23 03:06:29;;;;;;;27.10;12.07;;;8.40;99.90;;;;;;5057793;28;20130;-86
2022/12/23 03:08:58;;;;;;;27.77;11.65;;;8.50;99.90;;;;;;5074730;28;20047;-87
2022/12/23 03:11:41;;;;;;;24.55;12.05;;;8.50;99.90;;;;;;5056760;28;20488;-87
2022/12/23 03:14:28;;;;;;;27.75;11.85;;;8.40;99.90;;;;;;5057469;28;20044;-87
2022/12/23 03:17:21;;;;;;;23.25;12.00;;;8.50;99.90;;;;;;5064053;28;20043;-86
2022/12/23 03:20:11;;;;;;;22.58;11.90;;;8.50;99.90;;;;;;5048586;28;20044;-86
2022/12/23 03:22:53;;;;;;;22.80;11.57;;;8.40;99.90;;;;;;5073072;28;20075;-87
2022/12/23 03:25:35;;;;;;;24.73;11.73;;;8.40;99.90;;;;;;5071894;28;20059;-87
2022/12/23 03:28:15;;;;;;;27.90;13.50;;;8.40;99.90;;;;;;5055214;28;20040;-87
2022/12/23 03:30:47;;;;;;;24.55;12.65;;;8.40;99.90;;;;;;5054806;28;20044;-86
2022/12/23 03:33:19;;;;;;;28.90;13.20;;;8.40;99.90;;;;;;5054138;28;20050;-86
2022/12/23 03:35:52;;;;;;;29.38;13.38;;;8.40;99.90;;;;;;5053860;28;20051;-87
2022/12/23 03:38:19;;;;;;;28.05;12.77;;;8.40;99.90;;;;;;5045657;28;20043;-87
2022/12/23 03:40:53;;;;;;;30.23;13.10;;;9.10;99.90;;;;;;5039198;28;20048;-87
2022/12/23 03:43:35;;;;;;;29.77;14.18;;;8.40;99.90;;;;;;5044064;28;20060;-86
2022/12/23 03:46:35;;;;;;;31.15;13.63;;;8.40;99.90;;;;;;5053709;28;20067;-86
2022/12/23 03:49:06;;;;;;;38.42;14.48;;;8.40;99.90;;;;;;5044478;28;20077;-86
2022/12/23 03:52:01;;;;;;;38.63;15.30;;;8.30;99.90;;;;;;5053829;28;20515;-87
2022/12/23 03:54:33;;;;;;;36.97;14.23;;;8.30;99.90;;;;;;5052718;28;20087;-87
2022/12/23 03:57:03;;;;;;;35.13;15.07;;;8.30;99.90;;;;;;5053305;28;20036;-87
2022/12/23 03:59:37;;;;;;;33.38;14.73;;;8.30;99.90;;;;;;5054060;28;20400;-87
2022/12/23 04:02:24;;;;;;;29.30;13.55;;;8.30;99.90;;;;;;5053962;28;20036;-87
2022/12/23 04:05:30;;;;;;;34.10;14.52;;;8.30;99.90;;;;;;5071471;28;20564;-87
2022/12/23 04:08:18;;;;;;;35.88;14.90;;;8.30;99.90;;;;;;5054358;28;20040;-87
2022/12/23 04:10:45;;;;;;;32.25;14.25;;;9.10;99.90;;;;;;5054514;28;20048;-87
2022/12/23 04:13:11;;;;;;;34.47;14.40;;;8.30;99.90;;;;;;5037228;28;20508;-87
2022/12/23 04:15:40;;;;;;;44.72;14.43;;;8.30;99.90;;;;;;5022295;28;20052;-87
2022/12/23 04:18:06;;;;;;;35.42;14.65;;;8.30;99.90;;;;;;5041054;28;20128;-87
2022/12/23 04:20:31;;;;;;;46.15;14.98;;;8.20;99.90;;;;;;5053324;28;20101;-87
2022/12/23 04:22:57;;;;;;;39.58;14.10;;;8.30;99.90;;;;;;5038715;28;20103;-87
2022/12/23 04:25:23;;;;;;;35.22;14.73;;;8.30;99.90;;;;;;5038380;28;20555;-87
2022/12/23 04:27:49;;;;;;;30.90;13.35;;;8.20;99.90;;;;;;5053546;28;20063;-87
2022/12/23 04:30:14;;;;;;;40.67;13.93;;;8.20;99.90;;;;;;5053779;28;20074;-87
2022/12/23 04:32:41;;;;;;;36.30;13.23;;;8.20;99.90;;;;;;5053822;28;20123;-88
2022/12/23 04:35:08;;;;;;;36.70;14.57;;;8.20;99.90;;;;;;5053994;28;20047;-87
2022/12/23 04:37:34;;;;;;;38.10;15.18;;;8.20;99.90;;;;;;5053944;28;20055;-88
2022/12/23 04:39:59;;;;;;;33.33;13.73;;;8.20;99.90;;;;;;5053813;28;20040;-87
2022/12/23 04:42:25;;;;;;;31.98;14.07;;;8.20;99.90;;;;;;5020869;28;20055;-87
2022/12/23 04:44:51;;;;;;;36.53;14.18;;;8.60;99.90;;;;;;5054120;28;20047;-87
2022/12/23 04:47:16;;;;;;;36.10;13.38;;;8.10;99.90;;;;;;5054140;28;20072;-88
2022/12/23 04:49:42;;;;;;;32.80;13.57;;;8.10;99.90;;;;;;5037793;28;20032;-87
2022/12/23 04:52:08;;;;;;;31.55;13.98;;;8.10;99.90;;;;;;5036910;28;20119;-87
2022/12/23 04:54:34;;;;;;;33.30;14.15;;;8.10;99.90;;;;;;5037663;28;20181;-87
2022/12/23 04:56:59;;;;;;;29.02;12.55;;;8.10;99.90;;;;;;5038513;28;20546;-87
2022/12/23 04:59:25;;;;;;;30.00;13.75;;;8.10;99.90;;;;;;5053757;28;20085;-87
2022/12/23 05:01:51;;;;;;;31.30;13.73;;;8.70;99.90;;;;;;5062574;28;20070;-87
2022/12/23 05:04:16;;;;;;;28.48;13.40;;;8.10;99.90;;;;;;5054354;28;20150;-87
2022/12/23 05:06:42;;;;;;;35.10;13.60;;;8.00;99.90;;;;;;5021629;28;20399;-88
2022/12/23 05:09:08;;;;;;;30.83;13.48;;;8.00;99.90;;;;;;5052633;28;20036;-88
2022/12/23 05:11:34;;;;;;;27.77;12.25;;;8.00;99.90;;;;;;5052927;28;20055;-87
2022/12/23 05:13:59;;;;;;;27.48;12.50;;;8.00;99.90;;;;;;5037902;28;20043;-87
2022/12/23 05:16:25;;;;;;;32.67;14.05;;;8.00;99.90;;;;;;5037845;28;20423;-88
2022/12/23 05:18:51;;;;;;;32.03;13.85;;;8.50;99.90;;;;;;5037196;28;20055;-87
2022/12/23 05:21:17;;;;;;;77.07;13.85;;;7.90;99.90;;;;;;5052793;28;20045;-87
2022/12/23 05:23:43;;;;;;;37.97;13.50;;;7.90;99.90;;;;;;5053735;28;20048;-87
2022/12/23 05:26:08;;;;;;;45.65;14.57;;;8.70;99.90;;;;;;5021905;28;20062;-87
2022/12/23 05:28:34;;;;;;;114.22;16.10;;;7.80;99.90;;;;;;5053714;28;20089;-87
2022/12/23 05:31:03;;;;;;;105.97;14.60;;;8.10;99.90;;;;;;5056681;28;20047;-87
2022/12/23 05:33:29;;;;;;;150.65;16.13;;;7.80;99.90;;;;;;5058272;28;20391;-87
2022/12/23 05:35:55;;;;;;;86.30;14.02;;;7.80;99.90;;;;;;5059114;28;20052;-86
2022/12/23 05:38:21;;;;;;;215.40;16.98;;;8.10;99.90;;;;;;5062358;28;20044;-86
2022/12/23 05:40:47;;;;;;;322.20;18.45;;;8.00;99.90;;;;;;5059181;28;20388;-87
2022/12/23 05:43:13;;;;;;;97.18;14.45;;;7.80;99.90;;;;;;5058463;28;20051;-87
2022/12/23 05:45:43;;;;;;;41.00;14.30;;;7.80;99.90;;;;;;5058371;28;20040;-87
2022/12/23 05:48:08;;;;;;;81.82;14.98;;;7.80;99.90;;;;;;5057580;28;20040;-87
2022/12/23 05:50:34;;;;;;;156.80;16.77;;;7.90;99.90;;;;;;5075009;28;20135;-87
2022/12/23 05:53:00;;;;;;;119.63;17.00;;;7.80;99.90;;;;;;5024797;28;20036;-87
2022/12/23 05:55:26;;;;;;;229.38;18.75;;;7.80;99.90;;;;;;5041450;28;20044;-87
2022/12/23 05:57:52;;;;;;;88.97;17.35;;;7.80;99.90;;;;;;5057764;28;20048;-87
2022/12/23 06:00:18;;;;;;;72.20;17.65;;;7.80;99.90;;;;;;5023339;28;20506;-86
2022/12/23 06:02:45;;;;;;;62.97;17.23;;;7.80;99.90;;;;;;5057596;28;20052;-87
2022/12/23 06:05:11;;;;;;;65.80;15.95;;;7.80;99.90;;;;;;5056161;28;20123;-87
2022/12/23 06:07:37;;;;;;;160.55;18.98;;;7.80;99.90;;;;;;5058258;28;20506;-87
2022/12/23 06:10:05;;;;;;;58.03;17.77;;;7.80;99.90;;;;;;5058056;28;20032;-87
2022/12/23 06:12:31;;;;;;;42.47;17.80;;;7.80;99.90;;;;;;5055476;28;20051;-86
2022/12/23 06:14:56;;;;;;;50.78;18.02;;;7.80;99.90;;;;;;5058286;28;20040;-87
2022/12/23 06:17:22;;;;;;;43.65;16.83;;;7.80;99.90;;;;;;5041364;28;20046;-87
2022/12/23 06:19:48;;;;;;;37.10;17.85;;;8.40;99.90;;;;;;5024451;28;20476;-86
2022/12/23 06:22:14;;;;;;;41.35;17.42;;;7.80;99.90;;;;;;5072844;28;20105;-87
2022/12/23 06:24:40;;;;;;;36.92;16.65;;;7.90;99.90;;;;;;5055945;28;20052;-87
2022/12/23 06:27:06;;;;;;;36.50;16.58;;;7.80;99.90;;;;;;5057084;28;20047;-87
2022/12/23 06:29:32;;;;;;;35.22;17.00;;;8.10;99.90;;;;;;5040578;28;20385;-87
2022/12/23 06:31:57;;;;;;;40.70;17.85;;;7.90;99.90;;;;;;5040677;28;20471;-86
2022/12/23 06:34:23;;;;;;;39.08;17.23;;;7.80;99.90;;;;;;5056221;28;20126;-87
2022/12/23 06:36:49;;;;;;;41.95;17.90;;;7.80;99.90;;;;;;5056391;28;20551;-87
2022/12/23 06:39:14;;;;;;;38.20;17.00;;;7.80;99.90;;;;;;5056753;28;20130;-86
2022/12/23 06:41:40;;;;;;;35.95;17.08;;;7.80;99.90;;;;;;5039872;28;20028;-87
2022/12/23 06:44:06;;;;;;;33.45;15.88;;;8.10;99.90;;;;;;5040490;28;20044;-87
2022/12/23 06:46:32;;;;;;;35.10;16.83;;;8.00;99.90;;;;;;5040559;28;20507;-87
2022/12/23 06:48:57;;;;;;;34.97;16.85;;;7.90;99.90;;;;;;5039988;28;20040;-87
2022/12/23 06:51:23;;;;;;;34.58;16.58;;;7.80;99.90;;;;;;5056113;28;20063;-87
2022/12/23 06:53:49;;;;;;;30.05;14.90;;;7.90;99.90;;;;;;5023648;28;20040;-86
2022/12/23 06:56:14;;;;;;;31.40;15.10;;;7.80;99.90;;;;;;5056079;28;20421;-87
2022/12/23 06:58:40;;;;;;;31.75;16.00;;;7.80;99.90;;;;;;5040043;28;20043;-87
2022/12/23 07:01:06;;;;;;;31.23;16.20;;;7.80;99.90;;;;;;5022863;28;20599;-87
2022/12/23 07:03:31;;;;;;;34.10;16.05;;;8.30;99.90;;;;;;5055495;28;20089;-86
2022/12/23 07:05:57;;;;;;;33.67;16.65;;;7.80;99.90;;;;;;5055677;28;20040;-86
2022/12/23 07:08:23;;;;;;;33.50;16.48;;;7.80;99.90;;;;;;5022366;28;20039;-85
2022/12/23 07:10:49;;;;;;;36.60;16.55;;;7.80;99.90;;;;;;5023708;28;20044;-84
2022/12/23 07:13:15;;;;;;;35.78;15.73;;;7.80;99.90;;;;;;5072444;28;20048;-84
2022/12/23 07:15:40;;;;;;;36.17;16.65;;;7.80;99.90;;;;;;5022546;28;20459;-85
2022/12/23 07:18:07;;;;;;;41.63;16.85;;;7.80;99.90;;;;;;5020925;28;20122;-84
2022/12/23 07:20:32;;;;;;;30.58;16.00;;;7.80;99.90;;;;;;5038545;28;20048;-85
2022/12/23 07:22:58;;;;;;;29.70;15.00;;;7.70;99.90;;;;;;5022049;28;20404;-86
2022/12/23 07:25:24;;;;;;;28.73;15.52;;;7.70;99.90;;;;;;5022848;28;20540;-85
2022/12/23 07:27:54;;;;;;;30.70;15.43;;;7.70;99.90;;;;;;5055278;28;20487;-86
2022/12/23 07:30:20;;;;;;;33.75;15.88;;;7.80;99.90;;;;;;5055794;28;20040;-85
2022/12/23 07:32:50;;;;;;;35.35;16.80;;;7.70;99.90;;;;;;5053210;28;20040;-85
2022/12/23 07:35:16;;;;;;;34.22;15.90;;;7.70;99.90;;;;;;5037380;28;20549;-85
2022/12/23 07:37:42;;;;;;;37.08;17.38;;;7.70;99.90;;;;;;5053759;28;20487;-84
2022/12/23 07:40:08;;;;;;;34.38;15.75;;;7.70;99.90;;;;;;5037903;28;20158;-83
2022/12/23 07:42:34;;;;;;;30.58;15.02;;;7.70;99.90;;;;;;5067669;28;20541;-86
2022/12/23 07:45:00;;;;;;;40.63;15.50;;;7.90;99.90;;;;;;5038575;28;20051;-85
2022/12/23 07:47:26;;;;;;;33.25;15.70;;;7.80;99.90;;;;;;5071258;28;20036;-82
2022/12/23 07:49:52;;;;;;;34.30;15.80;;;7.70;99.90;;;;;;5070115;28;20098;-84
2022/12/23 07:52:18;;;;;;;33.42;15.75;;;7.70;99.90;;;;;;5072154;28;20048;-83
2022/12/23 07:54:43;;;;;;;37.22;15.05;;;7.70;99.90;;;;;;5071645;28;20077;-83
2022/12/23 07:57:09;;;;;;;36.53;14.70;;;7.70;99.90;;;;;;5055028;28;20043;-84
2022/12/23 07:59:35;;;;;;;28.20;14.02;;;7.70;99.90;;;;;;5039046;28;20040;-85
2022/12/23 08:02:01;;;;;;;29.45;14.00;;;7.70;99.90;;;;;;5035229;28;20044;-86
2022/12/23 08:04:27;;;;;;;29.98;12.98;;;7.60;99.90;;;;;;5054136;28;20055;-86
2022/12/23 08:06:52;;;;;;;28.52;13.55;;;7.60;99.90;;;;;;5055163;28;20039;-86
2022/12/23 08:09:18;;;;;;;22.75;12.32;;;8.00;99.90;;;;;;5057187;28;20514;-87
2022/12/23 08:11:44;;;;;;;24.77;13.20;;;7.60;99.90;;;;;;5039930;28;20092;-86
2022/12/23 08:14:10;;;;;;;29.73;14.00;;;7.50;99.90;;;;;;5070732;28;20047;-86
2022/12/23 08:16:36;;;;;;;24.92;12.68;;;7.50;99.90;;;;;;5068391;28;20051;-86
2022/12/23 08:19:02;;;;;;;21.35;12.93;;;7.50;99.90;;;;;;5055078;28;20399;-86
2022/12/23 08:21:27;;;;;;;22.60;12.43;;;7.50;99.90;;;;;;5054584;28;20087;-84
2022/12/23 08:23:53;;;;;;;22.80;12.90;;;7.50;99.90;;;;;;5052697;28;20056;-85
2022/12/23 08:26:23;;;;;;;21.58;11.95;;;7.50;99.90;;;;;;5035043;28;20039;-85
2022/12/23 08:28:53;;;;;;;22.20;12.15;;;7.50;99.90;;;;;;5070906;28;20036;-86
2022/12/23 08:31:26;;;;;;;19.50;11.00;;;7.50;99.90;;;;;;5053143;28;20048;-85
2022/12/23 08:33:54;;;;;;;21.98;11.68;;;7.50;99.90;;;;;;5054344;28;20076;-85
2022/12/23 08:36:23;;;;;;;20.15;11.15;;;7.60;99.90;;;;;;5055099;28;20043;-84
2022/12/23 08:38:51;;;;;;;18.40;10.60;;;7.60;99.90;;;;;;5054579;28;20377;-85
2022/12/23 08:41:23;;;;;;;20.50;11.10;;;7.60;99.90;;;;;;5054657;28;20400;-86
2022/12/23 08:43:49;;;;;;;20.27;11.32;;;7.60;99.90;;;;;;5054688;28;20032;-84
2022/12/23 08:46:14;;;;;;;18.85;10.88;;;7.60;99.90;;;;;;5019298;28;20047;-86
2022/12/23 08:48:40;;;;;;;20.73;11.48;;;7.60;99.90;;;;;;5071060;28;20123;-86
2022/12/23 08:51:12;;;;;;;22.02;11.95;;;8.00;99.90;;;;;;5054288;28;20062;-86
2022/12/23 08:53:39;;;;;;;21.45;11.77;;;7.60;99.90;;;;;;5042150;28;20036;-86
2022/12/23 08:56:07;;;;;;;24.50;12.40;;;7.60;99.90;;;;;;5071341;28;20098;-85
2022/12/23 08:58:38;;;;;;;24.58;12.35;;;7.60;99.90;;;;;;5069024;28;20082;-85
2022/12/23 09:01:13;;;;;;;30.90;12.73;;;7.60;99.90;;;;;;5053274;28;20070;-85
2022/12/23 09:03:39;;;;;;;32.35;13.40;;;7.60;99.90;;;;;;5053751;28;20157;-85
2022/12/23 09:06:15;;;;;;;23.48;13.10;;;7.60;99.90;;;;;;5056995;28;20061;-84
2022/12/23 09:08:41;;;;;;;28.50;13.50;;;7.60;99.90;;;;;;5073468;28;20036;-86
2022/12/23 09:11:12;;;;;;;27.08;12.63;;;7.60;99.90;;;;;;5039930;28;20087;-85
2022/12/23 09:13:37;;;;;;;26.50;13.40;;;7.60;99.90;;;;;;5074662;28;20043;-86
2022/12/23 09:16:04;;;;;;;24.77;12.25;;;7.60;99.90;;;;;;5041206;28;20388;-83
2022/12/23 09:18:30;;;;;;;23.65;11.55;;;7.60;99.90;;;;;;5041505;28;20100;-83
2022/12/23 09:21:02;;;;;;;22.02;12.10;;;7.60;99.90;;;;;;5058462;28;20048;-83
2022/12/23 09:23:27;;;;;;;27.65;13.50;;;7.60;99.90;;;;;;5072768;28;20087;-83
2022/12/23 09:25:54;;;;;;;26.90;13.02;;;7.60;99.90;;;;;;5058002;28;20535;-83
2022/12/23 09:28:20;;;;;;;27.15;11.13;;;7.60;99.90;;;;;;5074788;28;20036;-83
2022/12/23 09:30:46;;;;;;;24.08;11.40;;;7.70;99.90;;;;;;5058435;28;20078;-82
2022/12/23 09:33:12;;;;;;;22.33;11.07;;;7.60;99.90;;;;;;5041825;28;20093;-82
2022/12/23 09:35:38;;;;;;;20.08;10.75;;;7.70;99.90;;;;;;5057440;28;20516;-82
2022/12/23 09:38:04;;;;;;;23.38;11.05;;;7.70;99.90;;;;;;5056820;28;20047;-83
2022/12/23 09:40:33;;;;;;;19.90;10.52;;;7.70;99.90;;;;;;5057406;28;20608;-83
2022/12/23 09:43:13;;;;;;;21.23;10.60;;;7.70;99.90;;;;;;5075059;28;20399;-83
2022/12/23 09:45:52;;;;;;;24.27;11.30;;;7.70;99.90;;;;;;5073711;28;20131;-84
2022/12/23 09:48:24;;;;;;;22.60;11.52;;;7.70;99.90;;;;;;5058267;28;20036;-84
2022/12/23 09:50:50;;;;;;;20.40;10.80;;;7.70;99.90;;;;;;5056467;28;20071;-84
2022/12/23 09:53:23;;;;;;;23.63;11.23;;;7.70;99.90;;;;;;5039840;28;20544;-83
2022/12/23 09:56:26;;;;;;;21.63;10.63;;;7.70;99.90;;;;;;5056271;28;20054;-83
2022/12/23 09:59:18;;;;;;;24.23;10.10;;;7.70;99.90;;;;;;5041880;28;20048;-84
2022/12/23 10:02:18;;;;;;;19.45;10.73;;;7.80;99.90;;;;;;5073279;28;20377;-83
2022/12/23 10:05:01;;;;;;;19.75;9.52;;;7.80;99.90;;;;;;5069669;28;20051;-84
2022/12/23 10:07:48;;;;;;;23.90;10.18;;;7.90;99.90;;;;;;5056767;28;20039;-83
2022/12/23 10:10:29;;;;;;;17.33;8.63;;;7.90;99.90;;;;;;5073345;28;20036;-84
2022/12/23 10:12:57;;;;;;;22.20;9.70;;;7.90;99.90;;;;;;5058325;28;20044;-85
2022/12/23 10:15:36;;;;;;;15.90;8.65;;;8.30;99.90;;;;;;5065957;28;20035;-84
2022/12/23 10:18:12;;;;;;;16.58;9.07;;;8.00;99.90;;;;;;5072426;28;20036;-85
2022/12/23 10:20:52;;;;;;;16.63;8.95;;;8.00;99.90;;;;;;5045407;28;20048;-85
2022/12/23 10:23:30;;;;;;;16.77;8.75;;;8.00;99.90;;;;;;5070699;28;20136;-84
2022/12/23 10:25:56;;;;;;;14.15;8.02;;;8.10;99.90;;;;;;5053845;28;20044;-86
2022/12/23 10:28:22;;;;;;;14.50;8.10;;;8.10;99.90;;;;;;5053588;28;20063;-84
2022/12/23 10:31:03;;;;;;;14.95;8.70;;;8.10;99.90;;;;;;5032061;28;20499;-83
2022/12/23 10:33:58;;;;;;;15.18;7.95;;;8.10;99.90;;;;;;5052033;28;20047;-84
2022/12/23 10:36:53;;;;;;;16.48;8.27;;;8.20;99.90;;;;;;5067376;28;20106;-83
2022/12/23 10:39:41;;;;;;;16.83;8.77;;;8.20;99.90;;;;;;5071226;28;20549;-83
2022/12/23 10:42:10;;;;;;;16.15;8.73;;;8.20;99.90;;;;;;5054841;28;20044;-83
2022/12/23 10:44:38;;;;;;;14.35;7.97;;;8.20;99.90;;;;;;5053138;28;20047;-83
2022/12/23 10:47:26;;;;;;;14.23;7.35;;;8.30;99.90;;;;;;5051664;28;20041;-83
2022/12/23 10:49:51;;;;;;;16.17;8.27;;;8.30;99.90;;;;;;5065917;28;20072;-83
2022/12/23 10:52:21;;;;;;;15.70;9.32;;;8.30;99.90;;;;;;5053149;28;20079;-83
2022/12/23 10:54:48;;;;;;;15.52;8.57;;;8.30;99.90;;;;;;5068015;28;20045;-84
2022/12/23 10:57:16;;;;;;;16.73;8.38;;;8.30;99.90;;;;;;5049040;28;20063;-83
2022/12/23 10:59:42;;;;;;;15.55;8.00;;;8.30;99.90;;;;;;5057969;28;20414;-83
2022/12/23 11:02:11;;;;;;;17.75;9.57;;;8.30;99.90;;;;;;5051009;28;20098;-84
2022/12/23 11:04:47;;;;;;;15.95;7.97;;;8.30;99.90;;;;;;5050623;28;20029;-84
2022/12/23 11:07:20;;;;;;;19.08;9.73;;;8.30;99.90;;;;;;5068787;28;20136;-84
2022/12/23 11:10:02;;;;;;;18.95;9.23;;;8.30;99.90;;;;;;5068544;28;20192;-83
2022/12/23 11:12:49;;;;;;;21.58;10.10;;;8.20;99.90;;;;;;5069177;28;20041;-84
2022/12/23 11:15:30;;;;;;;26.40;10.98;;;8.30;99.90;;;;;;5051902;28;20167;-84
2022/12/23 11:18:11;;;;;;;33.28;12.25;;;8.30;99.90;;;;;;5051354;28;20046;-83
2022/12/23 11:20:42;;;;;;;22.67;10.55;;;8.30;99.90;;;;;;5052060;28;20419;-84
2022/12/23 11:23:29;;;;;;;28.00;12.13;;;8.20;99.90;;;;;;5034947;28;20140;-84
2022/12/23 11:26:06;;;;;;;29.70;12.23;;;8.20;99.90;;;;;;5051781;28;20049;-83
2022/12/23 11:28:38;;;;;;;27.63;12.02;;;8.20;99.90;;;;;;5051124;28;20083;-84
2022/12/23 11:31:13;;;;;;;32.10;13.93;;;8.20;99.90;;;;;;5067819;28;20438;-85
2022/12/23 11:34:03;;;;;;;30.55;13.68;;;8.20;99.90;;;;;;5062422;28;20052;-84
2022/12/23 11:36:30;;;;;;;33.00;14.48;;;8.20;99.90;;;;;;5051502;28;20502;-84
2022/12/23 11:39:11;;;;;;;33.97;15.10;;;8.20;99.90;;;;;;5046513;28;20537;-84
2022/12/23 11:41:47;;;;;;;29.50;13.52;;;8.60;99.90;;;;;;5068283;28;20078;-84
2022/12/23 11:44:29;;;;;;;34.05;16.88;;;8.20;99.90;;;;;;5067627;28;20037;-84
2022/12/23 11:46:55;;;;;;;28.20;15.27;;;8.20;99.90;;;;;;5051377;28;20028;-84
2022/12/23 11:49:30;;;;;;;31.30;15.35;;;8.20;99.90;;;;;;5035042;28;20499;-84
2022/12/23 11:52:05;;;;;;;31.95;14.05;;;8.20;99.90;;;;;;5059075;28;20043;-84
2022/12/23 11:54:32;;;;;;;28.80;13.27;;;8.80;99.90;;;;;;5067406;28;20048;-84
2022/12/23 11:57:02;;;;;;;28.58;13.80;;;8.20;99.90;;;;;;5051156;28;20079;-84
2022/12/23 11:59:30;;;;;;;31.85;14.02;;;8.20;99.90;;;;;;5051160;28;20162;-84
2022/12/23 12:02:04;;;;;;;23.35;11.40;;;8.20;99.90;;;;;;5051008;28;20527;-84
2022/12/23 12:04:34;;;;;;;25.13;11.85;;;8.20;99.90;;;;;;5058759;28;20036;-84
2022/12/23 12:07:01;;;;;;;24.23;12.70;;;8.90;99.90;;;;;;5051356;28;20041;-84
2022/12/23 12:09:30;;;;;;;26.30;12.63;;;8.20;99.90;;;;;;5059069;28;20033;-84
2022/12/23 12:12:12;;;;;;;26.95;11.85;;;8.20;99.90;;;;;;5049842;28;20051;-84
2022/12/23 12:14:47;;;;;;;34.03;13.13;;;8.20;99.90;;;;;;5067757;28;20044;-84
2022/12/23 12:17:20;;;;;;;27.50;12.48;;;8.20;99.90;;;;;;5043539;28;20048;-84
2022/12/23 12:19:58;;;;;;;37.85;13.52;;;8.20;99.90;;;;;;5051238;28;20151;-84
2022/12/23 12:22:45;;;;;;;30.00;12.73;;;8.20;99.90;;;;;;5050820;28;20047;-84
2022/12/23 12:25:20;;;;;;;39.90;14.75;;;8.30;99.90;;;;;;5042270;28;20072;-84
2022/12/23 12:27:58;;;;;;;39.92;14.07;;;8.20;99.90;;;;;;5048253;28;20047;-84
2022/12/23 12:30:42;;;;;;;37.40;13.38;;;8.70;99.90;;;;;;5022223;28;20128;-84
2022/12/23 12:33:35;;;;;;;29.27;12.88;;;8.20;99.90;;;;;;5023975;28;20095;-84
2022/12/23 12:36:33;;;;;;;29.13;13.15;;;8.20;99.90;;;;;;5039535;28;20044;-85
2022/12/23 12:38:59;;;;;;;36.70;14.55;;;8.20;99.90;;;;;;5007272;28;20045;-85
2022/12/23 12:41:41;;;;;;;33.30;13.32;;;8.20;99.90;;;;;;5026244;28;20536;-85
2022/12/23 12:44:45;;;;;;;36.47;14.05;;;8.30;99.90;;;;;;5027412;28;20072;-83
2022/12/23 12:47:27;;;;;;;31.65;13.20;;;8.30;99.90;;;;;;5042867;28;20032;-83
2022/12/23 12:50:00;;;;;;;31.42;14.23;;;8.20;99.90;;;;;;5045680;28;20056;-83
2022/12/23 12:52:28;;;;;;;30.52;13.45;;;8.30;99.90;;;;;;5046324;28;20083;-83
2022/12/23 12:55:05;;;;;;;31.00;13.55;;;8.30;99.90;;;;;;5046373;28;20083;-83
2022/12/23 12:57:34;;;;;;;26.80;12.20;;;8.30;99.90;;;;;;5025686;28;20041;-83
2022/12/23 13:00:01;;;;;;;37.40;13.65;;;8.30;99.90;;;;;;5046936;28;20484;-84
2022/12/23 13:02:48;;;;;;;28.17;13.07;;;8.30;99.90;;;;;;5025832;28;20069;-85
2022/12/23 13:05:17;;;;;;;34.53;13.82;;;8.30;99.90;;;;;;5027607;28;20072;-85
2022/12/23 13:08:04;;;;;;;27.95;12.70;;;8.30;99.90;;;;;;5025534;28;20029;-84
2022/12/23 13:10:43;;;;;;;31.98;13.95;;;8.30;99.90;;;;;;5024822;28;20037;-84
2022/12/23 13:13:44;;;;;;;33.08;12.30;;;8.30;99.90;;;;;;5047419;28;20044;-84
2022/12/23 13:16:16;;;;;;;31.70;12.82;;;8.30;99.90;;;;;;5025474;28;20048;-84
2022/12/23 13:19:02;;;;;;;33.88;13.82;;;8.40;99.90;;;;;;5045979;28;20742;-83
2022/12/23 13:21:49;;;;;;;38.07;15.07;;;8.30;99.90;;;;;;5027554;28;20033;-83
2022/12/23 13:25:01;;;;;;;37.47;15.05;;;8.30;99.90;;;;;;5033740;28;20048;-83
2022/12/23 13:27:45;;;;;;;40.60;15.55;;;8.30;99.90;;;;;;5000126;28;20044;-83
2022/12/23 13:30:13;;;;;;;34.50;13.70;;;8.30;99.90;;;;;;5036526;28;20083;-83